Time;durP1;ratioP1;P1;durP2;ratioP2;P2;SDS_P1;SDS_P2;PMS_P1;PMS_P2;Temp;Humidity;BMP_temperature;BMP_pressure;BME280_temperature;BME280_humidity;BME280_pressure;Samples;Min_cycle;Max_cycle;Signal;HPM_P1;HPM_P2
2022/07/31 00:00:06;;;;;;;3.57;3.27;;;19.10;99.90;;;;;;4995848;28;20207;-72
2022/07/31 00:02:32;;;;;;;4.17;2.77;;;19.00;99.90;;;;;;4995638;28;20522;-72
2022/07/31 00:04:57;;;;;;;3.90;3.40;;;19.00;99.90;;;;;;4995288;28;20837;-72
2022/07/31 00:07:23;;;;;;;6.33;3.60;;;19.00;99.90;;;;;;4995532;28;20210;-72
2022/07/31 00:09:48;;;;;;;3.47;3.17;;;19.00;99.90;;;;;;4995406;28;20183;-72
2022/07/31 00:12:14;;;;;;;4.57;3.70;;;19.00;99.90;;;;;;4995147;28;20573;-71
2022/07/31 00:14:40;;;;;;;3.40;2.87;;;19.00;99.90;;;;;;4994968;28;20175;-71
2022/07/31 00:17:06;;;;;;;3.27;2.97;;;18.90;99.90;;;;;;4995163;28;20176;-72
2022/07/31 00:19:31;;;;;;;4.73;3.40;;;18.90;99.90;;;;;;4995430;28;20579;-72
2022/07/31 00:21:57;;;;;;;3.30;3.10;;;18.80;99.90;;;;;;4995027;28;20211;-72
2022/07/31 00:24:23;;;;;;;3.27;2.97;;;18.80;99.90;;;;;;4995046;28;20233;-72
2022/07/31 00:26:49;;;;;;;4.20;3.50;;;18.80;99.90;;;;;;4994742;28;20208;-72
2022/07/31 00:29:14;;;;;;;4.33;3.37;;;18.80;99.90;;;;;;4993613;28;20498;-72
2022/07/31 00:31:40;;;;;;;2.93;2.73;;;18.70;99.90;;;;;;4994934;28;20667;-71
2022/07/31 00:34:05;;;;;;;4.80;3.30;;;18.70;99.90;;;;;;4994870;28;20172;-73
2022/07/31 00:36:31;;;;;;;3.87;3.57;;;18.70;99.90;;;;;;4994689;28;20259;-72
2022/07/31 00:38:57;;;;;;;2.93;2.67;;;18.70;99.90;;;;;;4995016;28;20231;-72
2022/07/31 00:41:23;;;;;;;4.60;2.93;;;18.60;99.90;;;;;;4994699;28;20183;-72
2022/07/31 00:43:48;;;;;;;5.40;3.10;;;18.60;99.90;;;;;;4994666;28;20412;-72
2022/07/31 00:46:14;;;;;;;4.17;3.10;;;18.60;99.90;;;;;;4995364;28;20278;-72
2022/07/31 00:48:40;;;;;;;3.87;2.70;;;18.60;99.90;;;;;;4999113;28;20173;-72
2022/07/31 00:51:05;;;;;;;3.83;3.40;;;18.60;99.90;;;;;;4997289;28;20272;-72
2022/07/31 00:53:32;;;;;;;3.47;3.10;;;18.60;99.90;;;;;;4994895;28;20209;-72
2022/07/31 00:55:57;;;;;;;3.50;3.13;;;18.60;99.90;;;;;;4994606;28;20222;-72
2022/07/31 00:58:23;;;;;;;4.37;3.93;;;18.50;99.90;;;;;;4994369;28;20404;-72
2022/07/31 01:00:48;;;;;;;4.60;4.20;;;18.50;99.90;;;;;;4994420;28;20186;-72
2022/07/31 01:03:15;;;;;;;7.23;4.80;;;18.50;99.90;;;;;;4993587;28;20195;-72
2022/07/31 01:05:40;;;;;;;4.13;3.83;;;18.60;99.90;;;;;;4994092;28;20212;-73
2022/07/31 01:08:06;;;;;;;4.40;4.00;;;18.60;99.90;;;;;;4994381;28;20442;-73
2022/07/31 01:10:37;;;;;;;5.50;3.43;;;18.50;99.90;;;;;;4994609;28;20263;-73
2022/07/31 01:13:09;;;;;;;5.13;3.87;;;18.50;99.90;;;;;;4994131;28;20475;-73
2022/07/31 01:15:36;;;;;;;4.97;3.80;;;18.40;99.90;;;;;;4994019;28;20408;-71
2022/07/31 01:18:03;;;;;;;3.53;3.23;;;18.40;99.90;;;;;;4993900;28;20489;-71
2022/07/31 01:20:31;;;;;;;6.60;3.77;;;18.40;99.90;;;;;;4993757;28;20460;-71
2022/07/31 01:23:12;;;;;;;4.20;3.73;;;18.40;99.90;;;;;;5028085;23;20515;-64
2022/07/31 01:25:53;;;;;;;4.33;4.03;;;18.40;99.90;;;;;;5013643;28;20815;-65
2022/07/31 01:28:47;;;;;;;8.73;4.23;;;18.30;99.90;;;;;;5012806;28;20413;-65
2022/07/31 01:31:18;;;;;;;4.77;4.27;;;18.30;99.90;;;;;;5013146;28;20406;-65
2022/07/31 01:33:57;;;;;;;3.13;2.93;;;18.40;99.90;;;;;;5012776;28;20414;-65
2022/07/31 01:36:27;;;;;;;4.63;4.23;;;18.30;99.90;;;;;;5012915;28;20411;-65
2022/07/31 01:38:56;;;;;;;5.07;3.80;;;18.20;99.90;;;;;;5012969;28;20410;-64
2022/07/31 01:41:25;;;;;;;4.03;3.73;;;18.20;99.90;;;;;;5009768;28;20413;-65
2022/07/31 01:43:54;;;;;;;5.00;4.20;;;18.20;99.90;;;;;;5012593;28;20418;-65
2022/07/31 01:46:22;;;;;;;4.50;4.10;;;18.10;99.90;;;;;;5011502;28;20456;-65
2022/07/31 01:48:48;;;;;;;3.87;3.53;;;18.10;99.90;;;;;;5011917;28;20439;-65
2022/07/31 01:51:15;;;;;;;4.70;4.30;;;18.10;99.90;;;;;;5012118;28;20407;-65
2022/07/31 01:53:44;;;;;;;4.93;4.43;;;18.10;99.90;;;;;;5011703;28;20919;-65
2022/07/31 01:56:10;;;;;;;4.90;4.20;;;18.10;99.90;;;;;;5011503;28;20415;-65
2022/07/31 01:58:40;;;;;;;4.27;3.87;;;18.20;99.90;;;;;;5011844;28;20638;-65
2022/07/31 02:01:08;;;;;;;5.80;4.67;;;18.40;99.90;;;;;;5011792;28;20911;-65
2022/07/31 02:03:35;;;;;;;6.23;5.10;;;18.30;99.90;;;;;;5011612;28;20935;-65
2022/07/31 02:06:02;;;;;;;5.00;4.50;;;18.10;99.90;;;;;;5011361;28;20881;-65
2022/07/31 02:08:29;;;;;;;5.80;4.27;;;18.10;99.90;;;;;;5012079;28;20428;-64
2022/07/31 02:10:56;;;;;;;3.90;3.30;;;18.30;99.90;;;;;;5011783;28;20442;-65
2022/07/31 02:13:22;;;;;;;4.67;4.27;;;18.40;99.90;;;;;;5011727;28;20432;-65
2022/07/31 02:15:50;;;;;;;4.63;3.53;;;18.40;99.90;;;;;;5011270;28;20816;-65
2022/07/31 02:18:17;;;;;;;4.90;3.73;;;18.20;99.90;;;;;;5011545;28;20488;-65
2022/07/31 02:20:45;;;;;;;5.07;3.80;;;18.20;99.90;;;;;;5011590;28;20975;-65
2022/07/31 02:23:10;;;;;;;5.07;4.50;;;18.20;99.90;;;;;;5011329;28;20460;-65
2022/07/31 02:25:36;;;;;;;6.77;4.57;;;18.20;99.90;;;;;;5011192;28;20421;-65
2022/07/31 02:28:09;;;;;;;5.30;4.80;;;18.20;99.90;;;;;;5011352;28;20587;-65
2022/07/31 02:30:37;;;;;;;6.10;4.57;;;18.00;99.90;;;;;;5011361;28;20170;-65
2022/07/31 02:33:05;;;;;;;4.73;3.70;;;18.30;99.90;;;;;;5011105;28;20435;-65
2022/07/31 02:35:31;;;;;;;4.10;3.37;;;18.20;99.90;;;;;;5011315;28;20414;-65
2022/07/31 02:37:57;;;;;;;5.27;4.10;;;18.20;99.90;;;;;;5011379;28;20403;-65
2022/07/31 02:40:24;;;;;;;9.00;4.50;;;18.20;99.90;;;;;;5011492;28;20258;-65
2022/07/31 02:42:51;;;;;;;5.10;4.23;;;18.30;99.90;;;;;;5011110;28;20436;-65
2022/07/31 02:45:17;;;;;;;6.53;4.27;;;18.00;99.90;;;;;;5010869;28;20417;-65
2022/07/31 02:47:43;;;;;;;4.30;3.90;;;18.00;99.90;;;;;;5010851;28;20535;-65
2022/07/31 02:50:10;;;;;;;4.00;3.70;;;18.00;99.90;;;;;;5011072;28;20509;-65
2022/07/31 02:52:37;;;;;;;6.77;3.47;;;18.10;99.90;;;;;;5011009;28;20424;-65
2022/07/31 02:55:03;;;;;;;5.57;4.57;;;18.30;99.90;;;;;;5010607;28;20429;-64
2022/07/31 02:57:29;;;;;;;5.63;3.80;;;18.10;99.90;;;;;;5011126;28;20405;-65
2022/07/31 02:59:55;;;;;;;4.80;3.83;;;17.90;99.90;;;;;;5011127;28;20888;-65
2022/07/31 03:02:20;;;;;;;5.40;4.83;;;17.90;99.90;;;;;;5010830;28;20194;-65
2022/07/31 03:04:46;;;;;;;4.30;3.90;;;17.80;99.90;;;;;;5010843;28;20205;-65
2022/07/31 03:07:12;;;;;;;3.50;3.20;;;17.70;99.90;;;;;;5011356;28;20302;-65
2022/07/31 03:09:37;;;;;;;7.10;4.57;;;17.50;99.90;;;;;;5011067;28;20193;-65
2022/07/31 03:12:03;;;;;;;5.20;4.40;;;17.70;99.90;;;;;;5010863;28;20194;-65
2022/07/31 03:14:30;;;;;;;10.53;4.03;;;17.70;99.90;;;;;;5010746;28;20197;-65
2022/07/31 03:16:56;;;;;;;6.60;4.40;;;17.90;99.90;;;;;;5010931;28;20895;-65
2022/07/31 03:19:23;;;;;;;5.00;4.60;;;17.70;99.90;;;;;;5011017;28;20533;-65
2022/07/31 03:21:49;;;;;;;4.60;3.67;;;17.80;99.90;;;;;;5010773;28;20431;-65
2022/07/31 03:24:16;;;;;;;5.50;4.97;;;17.70;99.90;;;;;;5010848;28;20446;-65
2022/07/31 03:26:42;;;;;;;5.40;4.70;;;17.60;99.90;;;;;;5012189;28;20921;-65
2022/07/31 03:29:07;;;;;;;4.30;3.90;;;17.60;99.90;;;;;;5014681;28;20409;-65
2022/07/31 03:31:33;;;;;;;4.57;4.17;;;17.40;99.90;;;;;;5014591;28;20172;-65
2022/07/31 03:33:59;;;;;;;5.20;4.50;;;17.50;99.90;;;;;;5014747;28;20680;-65
2022/07/31 03:36:26;;;;;;;4.47;4.07;;;17.60;99.90;;;;;;5014491;28;20830;-65
2022/07/31 03:38:52;;;;;;;5.10;4.07;;;17.70;99.90;;;;;;5014235;28;20907;-65
2022/07/31 03:41:17;;;;;;;6.03;5.43;;;17.70;99.90;;;;;;5014357;28;20404;-65
2022/07/31 03:43:45;;;;;;;4.70;4.30;;;17.70;99.90;;;;;;5014254;28;20436;-65
2022/07/31 03:46:12;;;;;;;5.80;4.50;;;17.70;99.90;;;;;;5013817;28;20276;-66
2022/07/31 03:48:38;;;;;;;5.37;4.50;;;17.80;99.90;;;;;;5014167;28;20408;-65
2022/07/31 03:51:05;;;;;;;6.10;4.27;;;18.00;99.90;;;;;;5029382;28;20937;-64
2022/07/31 03:53:31;;;;;;;7.67;4.70;;;18.10;99.90;;;;;;5013971;28;20218;-65
2022/07/31 03:55:57;;;;;;;4.60;4.20;;;18.00;99.90;;;;;;5013797;28;20405;-65
2022/07/31 03:58:24;;;;;;;5.87;4.27;;;17.80;99.90;;;;;;5014077;28;20469;-65
2022/07/31 04:00:50;;;;;;;5.00;3.67;;;17.70;99.90;;;;;;5013866;28;20420;-65
2022/07/31 04:03:15;;;;;;;4.40;4.00;;;17.60;99.90;;;;;;5013848;28;20517;-65
2022/07/31 04:05:42;;;;;;;4.77;4.27;;;17.70;99.90;;;;;;5013810;28;20556;-65
2022/07/31 04:08:08;;;;;;;4.30;3.80;;;17.80;99.90;;;;;;5013989;28;20284;-65
2022/07/31 04:10:38;;;;;;;5.10;4.40;;;18.00;99.90;;;;;;5014434;28;20423;-65
2022/07/31 04:13:04;;;;;;;4.87;4.20;;;18.10;99.90;;;;;;5013814;28;20426;-64
2022/07/31 04:15:30;;;;;;;7.10;4.07;;;18.10;99.90;;;;;;5013675;28;20437;-65
2022/07/31 04:17:56;;;;;;;3.80;3.47;;;18.00;99.90;;;;;;5013850;28;20445;-65
2022/07/31 04:20:22;;;;;;;4.23;3.83;;;18.10;99.90;;;;;;5014033;28;20921;-65
2022/07/31 04:22:48;;;;;;;5.23;3.90;;;18.00;99.90;;;;;;5013625;28;20215;-65
2022/07/31 04:25:14;;;;;;;4.20;3.70;;;18.20;99.90;;;;;;5013448;28;20247;-65
2022/07/31 04:27:40;;;;;;;5.40;4.13;;;18.30;99.90;;;;;;5013552;28;20445;-66
2022/07/31 04:30:07;;;;;;;4.80;4.20;;;18.40;99.90;;;;;;5013784;28;20424;-65
2022/07/31 04:32:36;;;;;;;5.30;3.67;;;18.20;99.90;;;;;;5013319;28;20455;-65
2022/07/31 04:35:03;;;;;;;4.83;4.37;;;18.20;99.90;;;;;;5013409;28;20787;-66
2022/07/31 04:37:28;;;;;;;5.50;4.10;;;18.50;99.90;;;;;;5012607;28;20918;-66
2022/07/31 04:39:54;;;;;;;4.43;4.03;;;18.50;99.90;;;;;;5012879;28;20414;-66
2022/07/31 04:42:19;;;;;;;5.03;4.63;;;18.40;99.90;;;;;;5013252;28;20226;-66
2022/07/31 04:44:45;;;;;;;7.33;4.07;;;18.10;99.90;;;;;;5013421;28;20228;-66
2022/07/31 04:47:11;;;;;;;4.30;3.80;;;18.00;99.90;;;;;;5013191;28;20218;-66
2022/07/31 04:49:36;;;;;;;6.23;4.40;;;18.40;99.90;;;;;;5013141;28;20621;-65
2022/07/31 04:52:02;;;;;;;5.77;3.90;;;18.30;99.90;;;;;;5012995;28;20649;-65
2022/07/31 04:54:28;;;;;;;4.80;3.97;;;18.50;99.90;;;;;;5012823;28;20175;-65
2022/07/31 04:56:54;;;;;;;4.07;3.77;;;18.50;99.90;;;;;;5012668;28;20514;-65
2022/07/31 04:59:21;;;;;;;4.80;3.70;;;18.30;99.90;;;;;;5013323;28;20492;-65
2022/07/31 05:01:48;;;;;;;4.77;3.83;;;18.30;99.90;;;;;;5012867;28;20461;-65
2022/07/31 05:04:14;;;;;;;5.07;4.50;;;18.50;99.90;;;;;;5012677;28;20418;-65
2022/07/31 05:06:42;;;;;;;5.13;4.63;;;18.60;99.90;;;;;;5012487;28;20454;-65
2022/07/31 05:09:11;;;;;;;5.60;4.00;;;18.60;99.90;;;;;;5012889;28;20415;-65
2022/07/31 05:11:38;;;;;;;4.40;4.00;;;18.70;99.90;;;;;;5012448;28;20851;-65
2022/07/31 05:14:06;;;;;;;3.90;3.37;;;18.70;99.90;;;;;;5012915;28;20485;-66
2022/07/31 05:16:32;;;;;;;4.47;3.57;;;19.00;99.90;;;;;;5012515;28;20417;-65
2022/07/31 05:18:58;;;;;;;7.10;3.90;;;19.40;99.90;;;;;;5012455;28;20497;-65
2022/07/31 05:21:29;;;;;;;4.60;3.47;;;19.60;99.90;;;;;;5012834;28;20241;-65
2022/07/31 05:23:55;;;;;;;3.93;3.60;;;19.70;99.90;;;;;;5012831;28;20784;-66
2022/07/31 05:26:22;;;;;;;4.70;3.40;;;20.30;99.90;;;;;;5012326;28;20469;-65
2022/07/31 05:28:49;;;;;;;4.23;3.73;;;21.20;99.90;;;;;;5012707;28;20442;-65
2022/07/31 05:31:16;;;;;;;4.00;3.60;;;21.00;99.90;;;;;;5012395;28;20892;-65
2022/07/31 05:33:42;;;;;;;5.83;3.50;;;21.10;99.90;;;;;;5012295;28;20776;-65
2022/07/31 05:36:08;;;;;;;3.97;3.67;;;21.70;99.90;;;;;;5011958;28;20481;-65
2022/07/31 05:38:33;;;;;;;4.00;3.70;;;22.80;99.90;;;;;;5012141;28;20164;-66
2022/07/31 05:40:59;;;;;;;5.33;3.70;;;22.40;99.90;;;;;;5012422;28;20184;-65
2022/07/31 05:43:25;;;;;;;4.00;3.53;;;22.40;99.90;;;;;;5012208;28;20234;-65
2022/07/31 05:45:50;;;;;;;4.40;3.70;;;22.20;99.90;;;;;;5011909;28;20186;-66
2022/07/31 05:48:16;;;;;;;6.63;4.03;;;22.30;99.90;;;;;;5011853;28;20204;-65
2022/07/31 05:50:45;;;;;;;3.17;2.93;;;23.30;99.90;;;;;;5012465;28;20179;-65
2022/07/31 05:53:14;;;;;;;3.53;3.23;;;23.70;99.90;;;;;;5011989;28;20195;-65
2022/07/31 05:55:44;;;;;;;4.03;3.73;;;23.90;99.90;;;;;;5011838;28;20512;-66
2022/07/31 05:58:10;;;;;;;3.83;3.50;;;23.50;99.90;;;;;;5011966;28;20422;-66
2022/07/31 06:00:37;;;;;;;4.00;3.70;;;23.30;99.90;;;;;;5011772;28;20417;-65
2022/07/31 06:03:04;;;;;;;4.57;4.10;;;22.80;99.90;;;;;;5011357;28;20449;-65
2022/07/31 06:05:30;;;;;;;4.60;4.30;;;23.10;99.90;;;;;;5011209;28;20844;-65
2022/07/31 06:07:56;;;;;;;3.67;3.37;;;24.20;99.90;;;;;;5012025;28;20471;-64
2022/07/31 06:10:22;;;;;;;3.50;3.30;;;24.50;99.90;;;;;;5011616;28;20173;-66
2022/07/31 06:12:48;;;;;;;4.43;3.40;;;24.80;99.90;;;;;;5011619;28;20426;-65
2022/07/31 06:15:13;;;;;;;5.77;3.60;;;24.10;99.90;;;;;;5011477;28;20498;-65
2022/07/31 06:17:40;;;;;;;6.23;4.13;;;24.20;99.90;;;;;;5011899;28;20866;-64
2022/07/31 06:20:06;;;;;;;4.10;3.80;;;24.50;99.90;;;;;;5011487;28;20185;-65
2022/07/31 06:22:32;;;;;;;4.43;4.03;;;25.00;99.90;;;;;;5011165;28;20516;-65
2022/07/31 06:24:57;;;;;;;3.93;3.53;;;25.30;99.90;;;;;;5011180;28;20419;-65
2022/07/31 06:27:23;;;;;;;4.00;3.70;;;25.80;99.90;;;;;;5011394;28;20326;-66
2022/07/31 06:29:48;;;;;;;3.80;3.50;;;25.60;99.90;;;;;;5011513;28;20209;-66
2022/07/31 06:32:14;;;;;;;4.37;3.97;;;25.50;99.90;;;;;;5011990;28;20278;-66
2022/07/31 06:34:40;;;;;;;5.07;4.67;;;26.50;99.90;;;;;;5011374;28;20583;-66
2022/07/31 06:37:06;;;;;;;5.10;4.60;;;26.50;99.90;;;;;;5011733;28;20176;-65
2022/07/31 06:39:32;;;;;;;6.00;5.03;;;26.60;99.90;;;;;;5011337;28;20546;-65
2022/07/31 06:41:57;;;;;;;4.17;3.73;;;26.10;99.90;;;;;;5011345;28;20242;-66
2022/07/31 06:44:23;;;;;;;5.20;4.30;;;26.50;99.90;;;;;;5011311;28;20179;-65
2022/07/31 06:46:50;;;;;;;5.30;3.80;;;27.40;99.90;;;;;;5010698;28;20503;-65
2022/07/31 06:49:16;;;;;;;9.70;4.53;;;28.00;98.60;;;;;;5010952;28;20172;-66
2022/07/31 06:51:42;;;;;;;3.30;3.00;;;26.50;99.40;;;;;;5010975;28;20410;-66
2022/07/31 06:54:09;;;;;;;10.13;5.07;;;26.90;99.90;;;;;;5011288;28;20175;-66
2022/07/31 06:56:35;;;;;;;4.03;3.10;;;26.30;99.90;;;;;;5010779;28;20176;-65
2022/07/31 06:59:02;;;;;;;3.77;3.47;;;26.50;99.80;;;;;;5011156;28;20408;-65
2022/07/31 07:01:28;;;;;;;3.63;3.43;;;27.40;99.00;;;;;;5012068;28;20502;-65
2022/07/31 07:03:54;;;;;;;3.57;3.27;;;27.60;96.50;;;;;;5015026;28;20498;-66
2022/07/31 07:06:20;;;;;;;3.00;2.80;;;26.60;97.90;;;;;;5015405;28;20804;-65
2022/07/31 07:08:46;;;;;;;4.80;3.10;;;26.80;97.40;;;;;;5015310;28;20409;-65
2022/07/31 07:11:11;;;;;;;6.90;3.03;;;26.60;97.70;;;;;;5015122;28;20196;-65
2022/07/31 07:13:37;;;;;;;2.70;2.50;;;28.00;95.90;;;;;;5013661;28;20184;-66
2022/07/31 07:16:03;;;;;;;3.20;2.93;;;26.70;96.30;;;;;;5014596;28;20222;-65
2022/07/31 07:18:28;;;;;;;2.63;2.43;;;26.90;95.90;;;;;;5014791;28;20172;-65
2022/07/31 07:20:54;;;;;;;3.13;2.93;;;27.00;96.80;;;;;;5015117;28;20179;-65
2022/07/31 07:23:20;;;;;;;3.17;2.90;;;28.20;95.00;;;;;;5035546;23;20759;-72
2022/07/31 07:25:46;;;;;;;5.13;3.27;;;27.30;94.70;;;;;;5014861;28;20164;-72
2022/07/31 07:28:12;;;;;;;2.80;2.40;;;27.20;93.90;;;;;;5015144;28;20799;-72
2022/07/31 07:30:38;;;;;;;2.43;2.23;;;27.40;94.10;;;;;;5015267;28;20176;-72
2022/07/31 07:33:04;;;;;;;3.43;2.40;;;28.10;92.40;;;;;;5015071;28;20421;-73
2022/07/31 07:35:30;;;;;;;8.33;2.70;;;27.80;92.70;;;;;;5014949;28;20661;-72
2022/07/31 07:37:56;;;;;;;2.83;2.63;;;26.10;93.60;;;;;;5015284;28;20850;-71
2022/07/31 07:40:23;;;;;;;2.60;2.40;;;26.30;94.40;;;;;;5015115;28;20415;-72
2022/07/31 07:42:49;;;;;;;2.67;2.47;;;28.10;92.50;;;;;;5015193;28;20929;-73
2022/07/31 07:45:15;;;;;;;2.73;2.53;;;28.80;91.50;;;;;;5014554;28;20413;-71
2022/07/31 07:47:40;;;;;;;2.67;2.43;;;28.60;89.80;;;;;;5014818;28;20188;-72
2022/07/31 07:50:08;;;;;;;4.37;2.90;;;28.10;90.70;;;;;;5014879;28;20415;-72
2022/07/31 07:52:34;;;;;;;2.87;2.67;;;28.60;91.70;;;;;;5014595;28;20196;-72
2022/07/31 07:55:00;;;;;;;3.47;2.37;;;29.80;88.40;;;;;;5014374;28;20446;-72
2022/07/31 07:57:26;;;;;;;2.87;2.67;;;29.10;89.00;;;;;;5014834;28;20821;-72
2022/07/31 07:59:52;;;;;;;3.40;2.77;;;27.80;90.30;;;;;;5014581;28;20211;-72
2022/07/31 08:02:18;;;;;;;2.70;2.50;;;27.20;91.40;;;;;;5014214;28;20933;-72
2022/07/31 08:04:44;;;;;;;3.00;2.70;;;28.10;90.50;;;;;;5014453;28;20464;-72
2022/07/31 08:07:09;;;;;;;3.07;2.30;;;27.80;90.70;;;;;;5014869;28;20265;-73
2022/07/31 08:09:35;;;;;;;2.57;2.37;;;27.60;89.70;;;;;;5014941;28;20168;-73
2022/07/31 08:12:02;;;;;;;2.70;2.37;;;29.10;90.50;;;;;;5014501;28;20264;-73
2022/07/31 08:14:28;;;;;;;2.30;2.10;;;29.50;86.50;;;;;;5014555;28;20842;-71
2022/07/31 08:16:54;;;;;;;3.80;2.60;;;29.00;89.00;;;;;;5013875;28;20419;-71
2022/07/31 08:19:20;;;;;;;5.60;2.63;;;29.00;87.30;;;;;;5014179;28;20176;-71
2022/07/31 08:21:46;;;;;;;4.47;2.40;;;28.60;89.90;;;;;;5014068;28;20470;-72
2022/07/31 08:24:12;;;;;;;3.27;3.07;;;29.70;85.10;;;;;;5013673;28;20219;-72
2022/07/31 08:29:23;;;;;;;2.50;2.30;;;29.50;85.80;;;;;;5013961;28;20175;-72
2022/07/31 08:31:50;;;;;;;4.33;2.70;;;28.30;87.20;;;;;;5013754;28;20815;-72
2022/07/31 08:34:16;;;;;;;2.33;2.20;;;28.90;88.50;;;;;;5012380;28;20466;-72
2022/07/31 08:36:42;;;;;;;2.60;2.37;;;28.30;89.00;;;;;;5015604;28;20719;-72
2022/07/31 08:39:07;;;;;;;3.70;2.43;;;29.60;87.30;;;;;;5018704;28;20523;-73
2022/07/31 08:41:37;;;;;;;2.00;1.87;;;30.10;82.70;;;;;;5014314;28;20207;-73
2022/07/31 08:44:06;;;;;;;3.80;2.40;;;30.60;80.00;;;;;;5013912;28;20196;-71
2022/07/31 08:46:38;;;;;;;2.50;2.30;;;31.60;78.70;;;;;;5013194;28;20508;-71
2022/07/31 08:49:05;;;;;;;5.40;3.40;;;30.80;79.60;;;;;;5013233;28;20398;-71
2022/07/31 08:51:36;;;;;;;2.93;2.73;;;29.80;81.00;;;;;;5011879;28;20459;-71
2022/07/31 08:54:06;;;;;;;2.40;2.20;;;28.60;85.20;;;;;;5013766;28;20434;-71
2022/07/31 08:56:36;;;;;;;2.50;2.30;;;27.90;89.00;;;;;;5013381;28;20391;-73
2022/07/31 08:59:03;;;;;;;2.93;2.40;;;28.30;88.20;;;;;;5013793;28;20419;-72
2022/07/31 09:01:29;;;;;;;2.53;2.33;;;29.40;85.80;;;;;;5013723;28;20419;-72
2022/07/31 09:03:55;;;;;;;4.07;2.60;;;30.10;83.20;;;;;;5013273;28;20565;-73
2022/07/31 09:06:21;;;;;;;4.07;3.00;;;30.20;80.50;;;;;;5011550;28;20196;-73
2022/07/31 09:08:46;;;;;;;1.70;1.60;;;29.60;80.90;;;;;;5013287;28;20411;-72
2022/07/31 09:11:13;;;;;;;3.97;2.60;;;28.00;85.90;;;;;;5012861;28;20187;-72
2022/07/31 09:13:50;;;;;;;2.23;2.03;;;28.90;85.80;;;;;;5012870;28;20658;-73
2022/07/31 09:16:16;;;;;;;2.90;2.30;;;29.30;84.60;;;;;;5012776;28;20399;-73
2022/07/31 09:18:42;;;;;;;4.63;2.70;;;29.90;81.20;;;;;;5013536;28;20868;-73
2022/07/31 09:21:07;;;;;;;2.27;2.07;;;29.60;82.60;;;;;;5013025;28;20175;-73
2022/07/31 09:23:44;;;;;;;2.10;1.87;;;30.20;80.30;;;;;;5012444;28;20210;-73
2022/07/31 09:26:10;;;;;;;1.93;1.80;;;31.30;79.00;;;;;;5012518;28;20184;-72
2022/07/31 09:28:38;;;;;;;1.80;1.70;;;29.90;78.00;;;;;;5012701;28;20442;-72
2022/07/31 09:31:06;;;;;;;2.17;2.00;;;30.70;78.40;;;;;;5012836;28;20535;-72
2022/07/31 09:33:32;;;;;;;2.20;2.00;;;29.80;79.20;;;;;;5012557;28;20431;-72
2022/07/31 09:35:59;;;;;;;2.13;1.93;;;29.90;79.50;;;;;;5012406;28;20493;-72
2022/07/31 09:38:36;;;;;;;2.50;1.80;;;31.10;75.80;;;;;;5011297;28;20533;-72
2022/07/31 09:41:12;;;;;;;1.83;1.73;;;30.00;78.80;;;;;;5012727;28;20494;-72
2022/07/31 09:43:38;;;;;;;3.40;2.10;;;29.80;79.80;;;;;;5012351;28;20419;-72
2022/07/31 09:46:05;;;;;;;2.13;1.93;;;29.90;78.20;;;;;;5012235;28;20411;-72
2022/07/31 09:48:32;;;;;;;3.93;3.63;;;29.30;79.20;;;;;;5012197;28;20843;-72
2022/07/31 09:51:00;;;;;;;1.83;1.73;;;30.90;75.90;;;;;;5012506;28;20407;-72
2022/07/31 09:53:26;;;;;;;2.00;1.90;;;31.30;75.10;;;;;;5012382;28;20419;-73
2022/07/31 09:55:54;;;;;;;2.27;2.07;;;31.50;74.40;;;;;;5011900;28;20940;-73
2022/07/31 09:58:22;;;;;;;2.33;2.00;;;31.10;75.50;;;;;;5012570;28;20822;-72
2022/07/31 10:00:50;;;;;;;2.30;2.10;;;30.60;76.30;;;;;;5012313;28;20505;-73
2022/07/31 10:03:17;;;;;;;1.93;1.80;;;30.60;73.40;;;;;;5011908;28;20767;-73
2022/07/31 10:05:44;;;;;;;2.17;2.03;;;29.50;75.80;;;;;;5011898;28;20476;-73
2022/07/31 10:08:12;;;;;;;3.33;2.67;;;29.20;79.30;;;;;;5012183;28;20403;-73
2022/07/31 10:10:38;;;;;;;2.40;2.20;;;29.50;78.90;;;;;;5012515;28;20415;-71
2022/07/31 10:13:08;;;;;;;2.63;2.27;;;29.40;79.60;;;;;;5012020;28;20790;-73
2022/07/31 10:15:36;;;;;;;2.40;2.20;;;29.70;78.40;;;;;;5012009;28;20407;-72
2022/07/31 10:18:02;;;;;;;2.63;2.30;;;28.70;80.20;;;;;;5012396;28;20446;-73
2022/07/31 10:20:28;;;;;;;2.63;2.40;;;29.20;79.40;;;;;;5014709;28;20403;-73
2022/07/31 10:22:58;;;;;;;2.77;2.57;;;29.40;78.40;;;;;;5014277;28;20533;-72
2022/07/31 10:25:26;;;;;;;2.07;1.97;;;29.60;76.80;;;;;;5014172;28;20215;-73
2022/07/31 10:27:53;;;;;;;3.37;2.30;;;28.90;78.70;;;;;;5014353;28;20411;-73
2022/07/31 10:30:19;;;;;;;3.17;2.97;;;29.40;77.30;;;;;;5011702;28;20821;-72
2022/07/31 10:32:46;;;;;;;3.03;2.57;;;28.90;77.60;;;;;;5011832;28;20435;-73
2022/07/31 10:35:12;;;;;;;2.73;2.53;;;28.70;80.00;;;;;;5011338;28;20413;-73
2022/07/31 10:37:59;;;;;;;4.13;2.40;;;28.70;79.60;;;;;;5011052;28;20459;-72
2022/07/31 10:40:35;;;;;;;4.10;2.57;;;28.70;80.70;;;;;;5011598;28;20423;-73
2022/07/31 10:43:27;;;;;;;2.73;2.53;;;28.30;80.90;;;;;;5011742;28;20435;-73
2022/07/31 10:45:54;;;;;;;6.30;2.20;;;28.50;81.30;;;;;;5010181;28;20415;-73
2022/07/31 10:48:22;;;;;;;2.90;2.33;;;28.60;80.00;;;;;;5011542;28;20426;-73
2022/07/31 10:50:59;;;;;;;2.93;2.67;;;28.90;79.00;;;;;;5011480;28;20415;-73
2022/07/31 10:53:24;;;;;;;2.43;2.20;;;29.10;79.90;;;;;;5011375;28;20430;-73
2022/07/31 10:56:02;;;;;;;3.23;2.93;;;28.90;79.60;;;;;;5011225;28;20498;-73
2022/07/31 10:58:31;;;;;;;3.30;2.80;;;28.60;80.30;;;;;;5011472;28;20705;-73
2022/07/31 11:01:07;;;;;;;2.40;2.20;;;29.00;78.70;;;;;;5011440;28;20438;-73
2022/07/31 11:03:44;;;;;;;3.53;2.23;;;28.90;81.00;;;;;;5011397;28;20481;-73
2022/07/31 11:06:14;;;;;;;2.67;2.43;;;28.70;80.20;;;;;;5011357;28;20383;-73
2022/07/31 11:08:42;;;;;;;6.40;2.50;;;28.70;80.00;;;;;;5011795;28;20402;-73
2022/07/31 11:11:07;;;;;;;2.40;2.20;;;28.60;81.00;;;;;;5011576;28;20826;-72
2022/07/31 11:13:46;;;;;;;2.73;2.53;;;28.10;80.90;;;;;;5011458;28;20431;-73
2022/07/31 11:16:12;;;;;;;2.87;2.67;;;28.10;81.70;;;;;;5010948;28;20168;-72
2022/07/31 11:18:37;;;;;;;2.63;2.43;;;27.30;83.00;;;;;;5011206;28;20476;-72
2022/07/31 11:21:06;;;;;;;4.30;2.20;;;27.60;82.80;;;;;;5011098;28;20187;-72
2022/07/31 11:23:32;;;;;;;2.10;1.90;;;27.80;82.20;;;;;;5010919;28;20222;-72
2022/07/31 11:26:03;;;;;;;1.97;1.83;;;28.20;81.60;;;;;;5010820;28;20425;-72
2022/07/31 11:28:29;;;;;;;2.47;2.27;;;28.20;81.60;;;;;;5011707;28;20407;-73
2022/07/31 11:30:57;;;;;;;2.27;2.13;;;27.90;80.60;;;;;;5011527;28;20405;-74
2022/07/31 11:33:42;;;;;;;2.37;2.17;;;27.70;81.00;;;;;;5011429;28;20647;-73
2022/07/31 11:36:14;;;;;;;4.33;2.43;;;28.30;79.90;;;;;;5010984;28;20493;-72
2022/07/31 11:38:43;;;;;;;2.90;2.70;;;27.90;81.50;;;;;;5011467;28;20406;-72
2022/07/31 11:41:09;;;;;;;3.27;3.07;;;27.40;82.60;;;;;;5011319;28;20421;-73
2022/07/31 11:43:39;;;;;;;2.23;2.00;;;26.80;83.10;;;;;;5011199;28;20434;-73
2022/07/31 11:46:05;;;;;;;2.73;2.53;;;27.00;84.40;;;;;;5010948;28;20426;-73
2022/07/31 11:48:31;;;;;;;2.60;2.40;;;27.50;84.90;;;;;;5013553;28;20419;-72
2022/07/31 11:50:58;;;;;;;2.50;2.30;;;27.80;83.50;;;;;;5013462;28;20414;-72
2022/07/31 11:53:24;;;;;;;2.03;1.93;;;28.10;81.50;;;;;;5014742;28;20423;-72
2022/07/31 11:55:55;;;;;;;2.60;2.40;;;28.10;83.10;;;;;;5014544;28;20908;-72
2022/07/31 11:58:23;;;;;;;2.57;2.47;;;28.50;81.70;;;;;;5015142;28;20819;-72
2022/07/31 12:00:56;;;;;;;2.30;2.10;;;27.80;81.90;;;;;;5015016;28;20406;-72
2022/07/31 12:03:29;;;;;;;2.93;2.30;;;27.80;82.90;;;;;;5014691;28;20510;-72
2022/07/31 12:05:54;;;;;;;2.83;2.60;;;28.40;82.00;;;;;;5014466;28;20407;-72
2022/07/31 12:08:22;;;;;;;2.23;2.13;;;28.50;81.30;;;;;;5014442;28;20897;-72
2022/07/31 12:10:48;;;;;;;2.60;2.40;;;28.70;80.30;;;;;;5014934;28;20234;-71
2022/07/31 12:13:18;;;;;;;2.80;2.60;;;28.40;80.90;;;;;;5018109;28;20423;-71
2022/07/31 12:16:02;;;;;;;3.63;2.30;;;29.10;79.90;;;;;;5015444;28;20164;-73
2022/07/31 12:18:31;;;;;;;2.80;2.40;;;28.80;81.60;;;;;;5014334;28;20478;-73
2022/07/31 12:21:01;;;;;;;2.70;2.50;;;28.00;81.10;;;;;;5014369;28;20399;-73
2022/07/31 12:23:41;;;;;;;2.77;2.23;;;28.40;80.60;;;;;;5014584;28;20951;-73
2022/07/31 12:26:09;;;;;;;2.97;2.53;;;28.10;80.70;;;;;;5014770;28;20889;-73
2022/07/31 12:28:34;;;;;;;2.60;2.40;;;28.00;82.00;;;;;;5014469;28;20407;-72
2022/07/31 12:31:00;;;;;;;2.90;2.70;;;27.70;80.70;;;;;;5014296;28;20465;-72
2022/07/31 12:33:26;;;;;;;2.77;2.30;;;28.00;81.10;;;;;;5014073;28;20741;-72
2022/07/31 12:35:53;;;;;;;2.53;2.33;;;28.30;79.50;;;;;;5014320;28;20670;-73
2022/07/31 12:38:23;;;;;;;3.77;3.53;;;28.20;80.60;;;;;;5014144;28;20806;-73
2022/07/31 12:40:49;;;;;;;2.97;2.67;;;28.60;80.80;;;;;;5014358;28;20403;-73
2022/07/31 12:43:21;;;;;;;2.20;2.07;;;28.80;80.50;;;;;;5014215;28;20945;-73
2022/07/31 12:45:51;;;;;;;2.90;2.60;;;28.40;81.60;;;;;;5014256;28;20187;-73
2022/07/31 12:48:16;;;;;;;2.93;2.20;;;28.40;82.20;;;;;;5014508;28;20406;-73
2022/07/31 12:50:42;;;;;;;2.60;2.40;;;27.80;84.20;;;;;;5014012;28;20414;-73